createdAt,value
2024-05-09T00:00:39.886Z,70.33
2024-05-09T00:03:09.254Z,70.21
2024-05-09T00:05:37.587Z,70.43
2024-05-09T00:08:05.007Z,70.29
2024-05-09T00:10:36.686Z,70.45
2024-05-09T00:13:07.163Z,70.58
2024-05-09T00:15:35.043Z,70.61
2024-05-09T00:18:03.266Z,71.18
2024-05-09T00:20:37.643Z,70.78
2024-05-09T00:23:08.115Z,70.78
2024-05-09T00:25:35.547Z,70.79
2024-05-09T00:28:02.995Z,71.45
2024-05-09T00:30:34.602Z,71.51
2024-05-09T00:33:05.522Z,71.47
2024-05-09T00:35:33.728Z,71.16
2024-05-09T00:38:00.984Z,71.49
2024-05-09T00:40:39.068Z,71.26
2024-05-09T00:43:08.954Z,72.15
2024-05-09T00:45:36.021Z,71.75
2024-05-09T00:48:07.532Z,72.20
2024-05-09T00:50:37.929Z,71.88
2024-05-09T00:53:11.789Z,72.11
2024-05-09T00:55:40.233Z,72.54
2024-05-09T00:58:10.814Z,72.60
2024-05-09T01:00:40.231Z,72.37
2024-05-09T01:03:13.354Z,72.32
2024-05-09T01:05:42.528Z,72.45
2024-05-09T01:08:10.987Z,72.91
2024-05-09T01:10:38.583Z,72.75
2024-05-09T01:13:06.569Z,72.48
2024-05-09T01:15:34.574Z,72.69
2024-05-09T01:18:06.746Z,72.55
2024-05-09T01:20:41.065Z,72.89
2024-05-09T01:23:11.445Z,72.78
2024-05-09T01:25:38.688Z,73.10
2024-05-09T01:28:06.156Z,73.34
2024-05-09T01:30:35.907Z,73.12
2024-05-09T01:33:07.233Z,73.22
2024-05-09T01:35:36.192Z,72.78
2024-05-09T01:38:03.273Z,73.16
2024-05-09T01:40:37.253Z,73.05
2024-05-09T01:43:10.968Z,73.36
2024-05-09T01:45:41.974Z,73.58
2024-05-09T01:48:09.652Z,73.29
2024-05-09T01:50:40.711Z,73.16
2024-05-09T01:53:10.735Z,73.71
2024-05-09T01:55:37.672Z,73.66
2024-05-09T01:58:04.771Z,73.32
2024-05-09T02:00:38.788Z,73.71
2024-05-09T02:03:11.528Z,73.52
2024-05-09T02:05:41.404Z,73.96
2024-05-09T02:08:14.964Z,73.91
2024-05-09T02:10:42.282Z,74.16
2024-05-09T02:13:09.485Z,74.02
2024-05-09T02:15:36.390Z,73.89
2024-05-09T02:18:03.528Z,74.03
2024-05-09T02:20:35.967Z,74.11
2024-05-09T02:23:06.170Z,73.99
2024-05-09T02:25:33.558Z,74.28
2024-05-09T02:28:00.347Z,74.19
2024-05-09T02:30:37.742Z,74.63
2024-05-09T02:33:08.698Z,74.37
2024-05-09T02:35:36.496Z,74.34
2024-05-09T02:38:03.710Z,74.59
2024-05-09T02:40:36.776Z,74.66
2024-05-09T02:43:06.639Z,74.70
2024-05-09T02:45:33.702Z,74.34
2024-05-09T02:48:01.693Z,74.57
2024-05-09T02:50:34.749Z,74.59
2024-05-09T02:53:05.952Z,74.66
2024-05-09T02:55:33.173Z,74.84
2024-05-09T02:58:00.185Z,74.62
2024-05-09T03:00:36.302Z,74.37
2024-05-09T03:03:11.862Z,74.10
2024-05-09T03:05:42.093Z,74.42
2024-05-09T03:08:09.469Z,74.50
2024-05-09T03:10:38.518Z,74.41
2024-05-09T03:13:12.900Z,74.19
2024-05-09T03:15:41.039Z,74.64
2024-05-09T03:18:07.962Z,74.56
2024-05-09T03:20:36.228Z,74.63
2024-05-09T03:23:05.479Z,74.67
2024-05-09T03:25:32.842Z,74.55
2024-05-09T03:27:59.845Z,74.69
2024-05-09T03:30:38.659Z,74.41
2024-05-09T03:33:18.616Z,74.66
2024-05-09T03:35:47.388Z,74.64
2024-05-09T03:38:14.498Z,74.51
2024-05-09T03:40:49.321Z,74.62
2024-05-09T03:43:17.353Z,74.96
2024-05-09T03:45:44.459Z,74.93
2024-05-09T03:48:11.857Z,74.84
2024-05-09T03:50:39.229Z,75.13
2024-05-09T03:53:09.580Z,75.10
2024-05-09T03:55:36.585Z,74.92
2024-05-09T03:58:03.492Z,74.76
2024-05-09T04:00:36.909Z,74.97
2024-05-09T04:03:11.088Z,75.05
2024-05-09T04:05:44.577Z,74.98
2024-05-09T04:08:13.215Z,74.99
2024-05-09T04:10:41.139Z,75.07
2024-05-09T04:13:08.189Z,75.21
2024-05-09T04:15:34.996Z,75.26
2024-05-09T04:18:02.490Z,75.11
2024-05-09T04:20:37.412Z,75.49
2024-05-09T04:23:08.814Z,75.41
2024-05-09T04:25:36.311Z,75.42
2024-05-09T04:28:03.282Z,75.29
2024-05-09T04:30:36.794Z,75.41
2024-05-09T04:33:08.846Z,75.54
2024-05-09T04:35:38.572Z,75.53
2024-05-09T04:38:06.155Z,75.45
2024-05-09T04:40:36.041Z,75.80
2024-05-09T04:43:13.660Z,75.61
2024-05-09T04:45:40.911Z,75.59
2024-05-09T04:48:08.302Z,75.72
2024-05-09T04:50:38.270Z,75.62
2024-05-09T04:53:09.474Z,75.88
2024-05-09T04:55:37.729Z,75.91
2024-05-09T04:58:05.785Z,76.00
2024-05-09T05:00:37.118Z,76.32
2024-05-09T05:03:08.137Z,76.05
2024-05-09T05:05:43.550Z,76.10
2024-05-09T05:08:15.291Z,76.35
2024-05-09T05:10:43.699Z,76.30
2024-05-09T05:13:25.028Z,76.28
2024-05-09T05:15:56.576Z,76.04
2024-05-09T05:18:26.066Z,76.03
2024-05-09T05:20:53.826Z,76.44
2024-05-09T05:23:22.555Z,76.48
2024-05-09T05:25:51.415Z,76.31
2024-05-09T05:28:19.187Z,76.33
2024-05-09T05:30:46.534Z,76.14
2024-05-09T05:33:15.420Z,75.95
2024-05-09T05:35:42.709Z,75.98
2024-05-09T05:38:11.032Z,75.84
2024-05-09T05:40:39.136Z,75.71
2024-05-09T05:43:11.018Z,75.76
2024-05-09T05:45:39.218Z,75.61
2024-05-09T05:48:07.848Z,75.49
2024-05-09T05:50:37.493Z,75.29
2024-05-09T05:53:07.380Z,75.76
2024-05-09T05:55:35.237Z,75.31
2024-05-09T05:58:02.922Z,75.30
2024-05-09T06:00:37.358Z,75.01
2024-05-09T06:03:06.753Z,75.17
2024-05-09T06:05:33.890Z,75.16
2024-05-09T06:08:00.988Z,75.40
2024-05-09T06:10:37.183Z,74.84
2024-05-09T06:13:07.073Z,74.53
2024-05-09T06:15:33.975Z,74.16
2024-05-09T06:18:01.183Z,74.49
2024-05-09T06:20:35.486Z,73.56
2024-05-09T06:23:08.588Z,73.58
2024-05-09T06:25:36.278Z,73.82
2024-05-09T06:28:03.783Z,73.70
2024-05-09T06:30:38.556Z,73.56
2024-05-09T06:33:10.091Z,73.38
2024-05-09T06:35:38.362Z,72.68
2024-05-09T06:38:06.272Z,72.50
2024-05-09T06:40:37.885Z,72.08
2024-05-09T06:43:18.703Z,71.67
2024-05-09T06:45:48.676Z,71.09
2024-05-09T06:48:18.408Z,70.82
2024-05-09T06:50:45.745Z,70.77
2024-05-09T06:53:17.011Z,70.83
2024-05-09T06:55:43.944Z,70.60
2024-05-09T06:58:10.792Z,70.87
2024-05-09T07:00:40.505Z,70.61
2024-05-09T07:03:11.426Z,70.58
2024-05-09T07:05:39.690Z,70.14
2024-05-09T07:08:07.122Z,69.95
2024-05-09T07:10:36.136Z,69.30
2024-05-09T07:13:12.130Z,68.87
2024-05-09T07:15:40.241Z,69.05
2024-05-09T07:18:18.488Z,68.45
2024-05-09T07:20:47.876Z,67.98
2024-05-09T07:23:16.404Z,67.36
2024-05-09T07:25:47.151Z,66.06
2024-05-09T07:28:19.481Z,65.54
2024-05-09T07:30:47.581Z,65.37
2024-05-09T07:33:20.039Z,65.50
2024-05-09T07:35:48.438Z,65.63
2024-05-09T07:38:18.486Z,64.42
2024-05-09T07:40:47.088Z,63.76
2024-05-09T07:43:17.618Z,64.15
2024-05-09T07:45:52.496Z,64.34
2024-05-09T07:52:38.267Z,63.95
2024-05-09T07:53:47.157Z,63.81
2024-05-09T07:56:19.696Z,63.49
2024-05-09T07:58:51.755Z,63.35
2024-05-09T08:01:20.885Z,63.51
2024-05-09T08:03:50.897Z,62.96
2024-05-09T08:06:19.163Z,63.96
2024-05-09T08:08:48.290Z,63.89
2024-05-09T08:11:24.185Z,64.20
2024-05-09T08:13:59.600Z,64.25
2024-05-09T08:16:28.090Z,63.08
2024-05-09T08:18:56.015Z,63.28
2024-05-09T08:21:24.596Z,62.87
2024-05-09T08:23:53.566Z,62.31
2024-05-09T08:26:22.882Z,62.12
2024-05-09T08:28:51.845Z,62.26
2024-05-09T08:31:21.656Z,61.68
2024-05-09T08:33:52.794Z,61.74
2024-05-09T08:36:21.441Z,61.28
2024-05-09T08:38:49.346Z,61.65
2024-05-09T08:41:18.689Z,59.13
2024-05-09T08:43:47.910Z,58.52
2024-05-09T08:46:19.398Z,57.62
2024-05-09T08:48:50.682Z,57.87
2024-05-09T08:51:19.398Z,59.07
2024-05-09T08:53:47.625Z,58.93
2024-05-09T08:56:17.285Z,59.05
2024-05-09T08:58:46.599Z,58.80
2024-05-09T09:01:15.407Z,59.44
2024-05-09T09:03:46.101Z,59.62
2024-05-09T09:06:18.732Z,59.77
2024-05-09T09:08:47.274Z,59.90
2024-05-09T09:11:16.413Z,59.80
2024-05-09T09:13:44.838Z,59.59
2024-05-09T09:16:13.501Z,60.16
2024-05-09T09:18:47.085Z,60.06
2024-05-09T09:21:15.693Z,60.51
2024-05-09T09:23:44.818Z,60.24
2024-05-09T09:26:16.903Z,59.55
2024-05-09T09:28:48.126Z,60.14
2024-05-09T09:31:20.532Z,60.19
2024-05-09T09:33:48.389Z,60.14
2024-05-09T09:36:16.439Z,59.60
2024-05-09T09:38:47.390Z,59.05
2024-05-09T09:41:20.574Z,59.66
2024-05-09T09:43:49.208Z,60.26
2024-05-09T09:46:19.142Z,59.36
2024-05-09T09:48:49.407Z,59.12
2024-05-09T09:51:17.886Z,59.12
2024-05-09T09:53:46.790Z,59.20
2024-05-09T09:56:18.184Z,59.68
2024-05-09T09:58:47.164Z,59.63
2024-05-09T10:01:14.994Z,58.79
2024-05-09T10:03:43.941Z,58.55
2024-05-09T10:06:13.596Z,58.34
2024-05-09T10:08:43.236Z,59.03
2024-05-09T10:11:11.924Z,58.67
2024-05-09T10:13:42.935Z,58.20
2024-05-09T10:16:12.322Z,58.67
2024-05-09T10:18:42.995Z,58.10
2024-05-09T10:21:21.059Z,57.97
2024-05-09T10:24:08.392Z,57.72
2024-05-09T10:26:38.202Z,57.28
2024-05-09T10:29:15.054Z,57.30
2024-05-09T10:31:45.622Z,57.10
2024-05-09T10:34:22.672Z,56.97
2024-05-09T10:36:55.366Z,55.84
2024-05-09T10:39:24.235Z,56.02
2024-05-09T10:41:52.724Z,56.76
2024-05-09T10:44:23.598Z,55.94
2024-05-09T10:46:52.661Z,57.43
2024-05-09T10:49:21.717Z,56.58
2024-05-09T10:51:51.739Z,56.80
2024-05-09T10:54:20.046Z,56.98
2024-05-09T10:56:56.403Z,56.45
2024-05-09T10:59:24.779Z,57.65
2024-05-09T11:01:53.521Z,56.70
2024-05-09T11:04:22.110Z,56.72
2024-05-09T11:06:50.535Z,58.42
2024-05-09T11:09:20.099Z,57.54
2024-05-09T11:11:48.597Z,56.62
2024-05-09T11:14:18.027Z,57.04
2024-05-09T11:16:46.076Z,55.89
2024-05-09T11:19:15.123Z,56.56
2024-05-09T11:21:43.436Z,56.01
2024-05-09T11:24:11.952Z,55.82
2024-05-09T11:26:40.206Z,55.74
2024-05-09T11:29:08.449Z,55.30
2024-05-09T11:31:48.645Z,55.18
2024-05-09T11:34:17.231Z,55.59
2024-05-09T11:36:45.439Z,55.30
2024-05-09T11:39:15.545Z,55.89
2024-05-09T11:41:43.108Z,56.31
2024-05-09T11:44:11.660Z,55.95
2024-05-09T11:46:40.000Z,58.02
2024-05-09T11:49:10.115Z,56.04
2024-05-09T11:51:38.888Z,56.36
2024-05-09T11:54:07.338Z,54.69
2024-05-09T11:56:35.271Z,55.88
2024-05-09T11:59:03.555Z,56.36
2024-05-09T12:01:31.558Z,56.02
2024-05-09T12:03:59.870Z,54.75
2024-05-09T12:06:28.040Z,55.65
2024-05-09T12:08:57.212Z,55.75
2024-05-09T12:11:25.085Z,55.44
2024-05-09T12:13:53.634Z,56.28
2024-05-09T12:16:22.164Z,55.21
2024-05-09T12:18:50.361Z,56.34
2024-05-09T12:21:18.584Z,56.15
2024-05-09T12:23:46.775Z,55.03
2024-05-09T12:26:16.646Z,54.75
2024-05-09T12:28:45.267Z,55.48
2024-05-09T12:31:13.386Z,55.70
2024-05-09T12:33:41.108Z,55.60
2024-05-09T12:36:09.037Z,54.21
2024-05-09T12:38:37.355Z,54.94
2024-05-09T12:41:06.231Z,55.58
2024-05-09T12:43:34.433Z,55.79
2024-05-09T12:46:04.424Z,55.15
2024-05-09T12:48:33.074Z,55.45
2024-05-09T12:51:02.339Z,55.24
2024-05-09T12:53:30.605Z,54.86
2024-05-09T12:56:02.261Z,55.71
2024-05-09T12:58:32.893Z,56.37
2024-05-09T13:01:01.958Z,57.04
2024-05-09T13:03:31.260Z,56.33
2024-05-09T13:05:59.976Z,55.07
2024-05-09T13:08:28.599Z,55.12
2024-05-09T13:10:57.806Z,55.22
2024-05-09T13:13:28.086Z,54.90
2024-05-09T13:15:57.155Z,54.88
2024-05-09T13:18:26.232Z,54.43
2024-05-09T13:20:55.234Z,54.66
2024-05-09T13:23:26.614Z,55.78
2024-05-09T13:25:55.776Z,55.33
2024-05-09T13:28:24.556Z,55.30
2024-05-09T13:30:53.736Z,54.98
2024-05-09T13:33:24.389Z,54.89
2024-05-09T13:35:53.870Z,54.66
2024-05-09T13:38:23.309Z,53.78
2024-05-09T13:40:51.904Z,53.25
2024-05-09T13:43:24.592Z,53.94
2024-05-09T13:45:56.332Z,52.94
2024-05-09T13:48:28.241Z,53.67
2024-05-09T13:50:58.174Z,52.38
2024-05-09T13:53:30.516Z,53.30
2024-05-09T13:56:00.048Z,53.82
2024-05-09T13:58:29.196Z,53.96
2024-05-09T14:00:59.446Z,53.91
2024-05-09T14:03:30.579Z,53.33
2024-05-09T14:05:59.428Z,51.90
2024-05-09T14:08:28.951Z,50.66
2024-05-09T14:10:58.457Z,48.50
2024-05-09T14:13:28.745Z,49.97
2024-05-09T14:15:59.278Z,51.10
2024-05-09T14:18:29.236Z,51.14
2024-05-09T14:20:58.945Z,50.57
2024-05-09T14:23:27.398Z,49.65
2024-05-09T14:25:56.497Z,49.05
2024-05-09T14:28:27.566Z,50.11
2024-05-09T14:30:57.576Z,51.67
2024-05-09T14:33:27.847Z,51.38
2024-05-09T14:35:56.303Z,50.29
2024-05-09T14:38:26.092Z,49.83
2024-05-09T14:40:56.006Z,49.50
2024-05-09T14:43:25.208Z,50.25
2024-05-09T14:45:54.595Z,51.93
2024-05-09T14:48:24.150Z,52.24
2024-05-09T14:50:52.624Z,52.54
2024-05-09T14:53:20.849Z,51.72
2024-05-09T14:55:50.712Z,52.42
2024-05-09T14:58:21.573Z,53.59
2024-05-09T15:00:51.366Z,53.83
2024-05-09T15:03:22.350Z,53.82
2024-05-09T15:05:51.879Z,53.73
2024-05-09T15:08:21.147Z,53.03
2024-05-09T15:10:53.305Z,52.90
2024-05-09T15:13:23.175Z,52.94
2024-05-09T15:15:50.940Z,53.45
2024-05-09T15:18:21.341Z,53.70
2024-05-09T15:20:51.656Z,51.17
2024-05-09T15:23:20.613Z,52.27
2024-05-09T15:25:48.596Z,52.37
2024-05-09T15:28:17.054Z,53.16
2024-05-09T15:30:46.855Z,53.38
2024-05-09T15:33:15.354Z,51.88
2024-05-09T15:35:44.084Z,52.81
2024-05-09T15:38:12.568Z,52.09
2024-05-09T15:40:41.297Z,52.28
2024-05-09T15:43:11.561Z,51.05
2024-05-09T15:45:41.360Z,50.00
2024-05-09T15:48:12.400Z,51.05
2024-05-09T15:50:42.484Z,49.84
2024-05-09T15:53:13.314Z,46.29
2024-05-09T15:55:43.423Z,50.19
2024-05-09T15:58:11.604Z,51.34
2024-05-09T16:00:42.334Z,52.15
2024-05-09T16:03:13.965Z,52.17
2024-05-09T16:05:47.797Z,53.11
2024-05-09T16:08:17.211Z,52.17
2024-05-09T16:10:46.831Z,51.48
2024-05-09T16:13:17.864Z,51.41
2024-05-09T16:15:47.153Z,52.21
2024-05-09T16:18:16.283Z,53.00
2024-05-09T16:20:46.466Z,52.41
2024-05-09T16:23:17.127Z,48.31
2024-05-09T16:25:48.725Z,50.51
2024-05-09T16:28:17.208Z,51.16
2024-05-09T16:30:45.960Z,51.22
2024-05-09T16:33:14.763Z,50.82
2024-05-09T16:35:43.181Z,51.25
2024-05-09T16:38:13.796Z,51.34
2024-05-09T16:40:43.530Z,50.24
2024-05-09T16:43:13.524Z,49.65
2024-05-09T16:45:45.183Z,52.27
2024-05-09T16:48:14.907Z,53.04
2024-05-09T16:50:43.403Z,51.00
2024-05-09T16:53:11.186Z,49.30
2024-05-09T16:55:39.713Z,50.50
2024-05-09T16:58:13.138Z,49.80
2024-05-09T17:00:43.732Z,48.42
2024-05-09T17:03:16.172Z,48.81
2024-05-09T17:05:47.472Z,48.79
2024-05-09T17:08:20.451Z,49.16
2024-05-09T17:10:49.912Z,50.54
2024-05-09T17:13:19.700Z,52.09
2024-05-09T17:15:49.431Z,51.68
2024-05-09T17:18:21.248Z,51.83
2024-05-09T17:20:58.527Z,51.79
2024-05-09T17:23:28.164Z,51.72
2024-05-09T17:25:57.296Z,52.27
2024-05-09T17:28:27.827Z,51.83
2024-05-09T17:30:56.872Z,52.60
2024-05-09T17:33:25.334Z,52.00
2024-05-09T17:35:54.054Z,52.16
2024-05-09T17:38:26.752Z,52.06
2024-05-09T17:40:59.790Z,52.24
2024-05-09T17:43:31.025Z,51.81
2024-05-09T17:46:01.475Z,52.13
2024-05-09T17:48:30.796Z,52.30
2024-05-09T17:50:59.329Z,53.37
2024-05-09T17:53:27.859Z,50.86
2024-05-09T17:55:57.294Z,50.83
2024-05-09T17:58:25.854Z,50.89
2024-05-09T18:00:56.155Z,51.93
2024-05-09T18:03:26.181Z,51.92
2024-05-09T18:05:56.940Z,51.55
2024-05-09T18:08:28.073Z,50.60
2024-05-09T18:11:04.565Z,49.99
2024-05-09T18:16:02.460Z,51.33
2024-05-09T18:18:32.954Z,50.72
2024-05-09T18:21:02.733Z,49.88
2024-05-09T18:23:34.374Z,50.61
2024-05-09T18:26:11.447Z,51.33
2024-05-09T18:28:44.445Z,50.86
2024-05-09T18:31:14.667Z,51.51
2024-05-09T18:33:43.694Z,52.17
2024-05-09T18:36:14.145Z,51.45
2024-05-09T18:38:47.733Z,52.42
2024-05-09T18:41:23.718Z,52.85
2024-05-09T18:43:56.280Z,52.88
2024-05-09T18:46:25.968Z,52.51
2024-05-09T18:48:55.535Z,52.97
2024-05-09T18:51:25.831Z,53.36
2024-05-09T18:53:59.279Z,52.85
2024-05-09T18:56:31.519Z,53.15
2024-05-09T18:59:01.887Z,53.36
2024-05-09T19:01:31.893Z,53.10
2024-05-09T19:04:03.141Z,53.36
2024-05-09T19:06:32.430Z,54.09
2024-05-09T19:09:01.707Z,54.05
2024-05-09T19:11:33.057Z,54.64
2024-05-09T19:14:05.366Z,54.29
2024-05-09T19:16:34.572Z,54.54
2024-05-09T19:19:06.802Z,54.05
2024-05-09T19:21:33.968Z,54.52
2024-05-09T19:24:01.712Z,55.30
2024-05-09T19:26:29.693Z,55.21
2024-05-09T19:28:57.280Z,55.34
2024-05-09T19:36:34.853Z,56.01
2024-05-09T19:39:02.635Z,56.00
2024-05-09T19:41:30.539Z,56.01
2024-05-09T19:43:58.380Z,56.33
2024-05-09T19:46:26.181Z,56.91
2024-05-09T19:48:54.526Z,57.47
2024-05-09T19:51:22.774Z,57.03
2024-05-09T19:53:51.412Z,57.14
2024-05-09T19:56:19.631Z,57.44
2024-05-09T19:58:47.649Z,57.48
2024-05-09T20:01:15.527Z,57.57
2024-05-09T20:03:43.426Z,57.99
2024-05-09T20:06:11.791Z,58.08
2024-05-09T20:08:39.952Z,58.18
2024-05-09T20:11:08.017Z,58.67
2024-05-09T20:13:37.245Z,58.47
2024-05-09T20:16:05.458Z,58.86
2024-05-09T20:18:33.384Z,59.00
2024-05-09T20:21:02.838Z,59.34
2024-05-09T20:23:30.612Z,59.34
2024-05-09T20:25:58.293Z,60.08
2024-05-09T20:28:26.270Z,60.47
2024-05-09T20:30:54.265Z,60.51
2024-05-09T20:33:22.326Z,61.50
2024-05-09T20:35:51.133Z,61.43
2024-05-09T20:38:19.470Z,62.12
2024-05-09T20:40:48.057Z,62.50
2024-05-09T20:43:16.781Z,62.17
2024-05-09T20:45:45.197Z,62.96
2024-05-09T20:48:13.797Z,62.54
2024-05-09T20:50:42.792Z,62.83
2024-05-09T20:53:14.251Z,63.60
2024-05-09T20:55:44.227Z,63.65
2024-05-09T20:58:12.824Z,63.75
2024-05-09T21:00:43.807Z,63.86
2024-05-09T21:03:16.124Z,64.55
2024-05-09T21:05:51.622Z,64.73
2024-05-09T21:08:19.479Z,64.82
2024-05-09T21:10:46.966Z,65.22
2024-05-09T21:13:15.055Z,65.05
2024-05-09T21:15:42.663Z,65.46
2024-05-09T21:18:10.642Z,65.51
2024-05-09T21:20:37.844Z,65.48
2024-05-09T21:23:05.795Z,65.45
2024-05-09T21:25:33.190Z,65.69
2024-05-09T21:28:01.589Z,66.00
2024-05-09T21:30:38.548Z,66.17
2024-05-09T21:33:11.251Z,66.35
2024-05-09T21:35:41.090Z,66.31
2024-05-09T21:38:08.561Z,66.08
2024-05-09T21:40:36.784Z,66.50
2024-05-09T21:43:05.529Z,66.81
2024-05-09T21:45:33.187Z,66.66
2024-05-09T21:48:00.786Z,66.97
2024-05-09T21:50:35.915Z,66.89
2024-05-09T21:53:07.537Z,67.21
2024-05-09T21:55:35.210Z,67.08
2024-05-09T21:58:03.400Z,67.37
2024-05-09T22:00:36.871Z,67.66
2024-05-09T22:03:10.610Z,67.56
2024-05-09T22:05:42.483Z,67.69
2024-05-09T22:08:09.599Z,67.67
2024-05-09T22:10:37.575Z,67.81
2024-05-09T22:13:06.662Z,67.90
2024-05-09T22:15:39.333Z,68.29
2024-05-09T22:18:09.021Z,68.20
2024-05-09T22:20:39.425Z,68.42
2024-05-09T22:23:08.714Z,68.16
2024-05-09T22:25:36.921Z,68.60
2024-05-09T22:28:05.174Z,68.61
2024-05-09T22:30:37.112Z,68.83
2024-05-09T22:33:07.792Z,68.55
2024-05-09T22:35:34.966Z,68.92
2024-05-09T22:38:03.076Z,68.95
2024-05-09T22:40:38.942Z,68.94
2024-05-09T22:43:13.853Z,68.95
2024-05-09T22:45:41.249Z,68.96
2024-05-09T22:48:09.007Z,69.29
2024-05-09T22:50:36.201Z,69.15
2024-05-09T22:53:03.032Z,69.62
2024-05-09T22:55:30.162Z,69.37
2024-05-09T22:57:57.170Z,69.26
2024-05-09T23:02:53.919Z,70.04
2024-05-09T23:05:20.910Z,69.48
2024-05-09T23:07:47.745Z,69.60
2024-05-09T23:10:21.264Z,69.78
2024-05-09T23:12:54.888Z,70.12
2024-05-09T23:15:21.903Z,69.94
2024-05-09T23:17:48.871Z,70.01
2024-05-09T23:20:21.716Z,70.22
2024-05-09T23:22:55.922Z,69.95
2024-05-09T23:25:22.806Z,70.55
2024-05-09T23:27:49.750Z,70.22
2024-05-09T23:30:28.314Z,70.17
2024-05-09T23:33:01.361Z,70.28
2024-05-09T23:35:28.363Z,70.53
2024-05-09T23:37:55.147Z,70.67
2024-05-09T23:40:23.474Z,70.99
2024-05-09T23:42:50.874Z,70.46
2024-05-09T23:45:17.751Z,70.86
2024-05-09T23:47:44.834Z,70.42
2024-05-09T23:50:16.951Z,70.52
2024-05-09T23:52:50.594Z,70.91
2024-05-09T23:55:17.668Z,70.81
2024-05-09T23:57:44.739Z,71.12
